Time;durP1;ratioP1;P1;durP2;ratioP2;P2;SDS_P1;SDS_P2;PMS_P1;PMS_P2;Temp;Humidity;BMP_temperature;BMP_pressure;BME280_temperature;BME280_humidity;BME280_pressure;Samples;Min_cycle;Max_cycle;Signal;HPM_P1;HPM_P2
2022/11/06 00:01:49;;;;;;;78.50;70.40;;;5.80;99.90;;;;;;5065614;28;20017;-73
2022/11/06 00:04:14;;;;;;;73.82;66.35;;;5.70;99.90;;;;;;5063697;28;20470;-74
2022/11/06 00:06:49;;;;;;;66.40;60.13;;;5.70;99.90;;;;;;5057292;28;20478;-74
2022/11/06 00:09:19;;;;;;;77.05;69.40;;;5.60;99.90;;;;;;5058313;28;20024;-74
2022/11/06 00:11:46;;;;;;;84.88;75.63;;;5.70;99.90;;;;;;5057440;28;20107;-74
2022/11/06 00:14:11;;;;;;;77.85;69.95;;;5.70;99.90;;;;;;5058771;28;20414;-77
2022/11/06 00:16:38;;;;;;;74.97;67.53;;;5.60;99.90;;;;;;5064269;28;20509;-74
2022/11/06 00:19:05;;;;;;;84.45;74.20;;;5.70;99.90;;;;;;5065023;28;20024;-75
2022/11/06 00:21:31;;;;;;;91.47;76.18;;;5.70;99.90;;;;;;5058892;28;20023;-74
2022/11/06 00:23:59;;;;;;;93.55;76.15;;;5.70;99.90;;;;;;5058609;28;20025;-74
2022/11/06 00:26:27;;;;;;;94.10;77.68;;;5.70;99.90;;;;;;5063581;28;20074;-74
2022/11/06 00:28:53;;;;;;;94.82;75.90;;;5.60;99.90;;;;;;5063570;28;20029;-74
2022/11/06 00:31:24;;;;;;;92.57;77.75;;;5.60;99.90;;;;;;5057973;28;20024;-75
2022/11/06 00:33:51;;;;;;;95.13;74.00;;;5.60;99.90;;;;;;5058215;28;20478;-74
2022/11/06 00:36:20;;;;;;;95.30;74.68;;;5.40;99.90;;;;;;5063856;28;20045;-74
2022/11/06 00:38:46;;;;;;;68.68;61.42;;;5.40;99.90;;;;;;5064801;28;20078;-74
2022/11/06 00:41:14;;;;;;;81.88;73.22;;;5.40;99.90;;;;;;5059732;28;20113;-74
2022/11/06 00:43:40;;;;;;;93.47;77.18;;;5.40;99.90;;;;;;5057914;28;20025;-74
2022/11/06 00:46:07;;;;;;;84.32;72.20;;;5.40;99.90;;;;;;5063413;28;20021;-74
2022/11/06 00:48:34;;;;;;;79.22;69.55;;;5.40;99.90;;;;;;5052683;28;20083;-74
2022/11/06 00:51:08;;;;;;;82.07;68.53;;;5.40;99.90;;;;;;5063073;28;20391;-73
2022/11/06 00:53:34;;;;;;;97.03;72.97;;;5.40;99.90;;;;;;5054627;28;20099;-74
2022/11/06 00:56:15;;;;;;;78.40;67.35;;;5.40;99.90;;;;;;5061743;28;20115;-73
2022/11/06 00:58:41;;;;;;;68.95;61.60;;;5.40;99.90;;;;;;5063079;28;20035;-73
2022/11/06 01:01:27;;;;;;;73.78;66.25;;;5.40;99.90;;;;;;5063392;28;20104;-73
2022/11/06 01:03:59;;;;;;;;;;;5.40;99.90;;;;;;5059959;28;20066;-73
2022/11/06 01:06:28;;;;;;;83.45;73.35;;;5.40;99.90;;;;;;5056673;28;19909;-73
2022/11/06 01:08:54;;;;;;;80.70;71.93;;;5.30;99.90;;;;;;5060607;28;20491;-73
2022/11/06 01:11:30;;;;;;;77.30;69.03;;;5.40;99.90;;;;;;5051334;28;20110;-73
2022/11/06 01:13:58;;;;;;;96.95;72.18;;;5.30;99.90;;;;;;5051186;28;20033;-73
2022/11/06 01:16:25;;;;;;;79.35;68.28;;;5.10;99.90;;;;;;5064627;28;20029;-73
2022/11/06 01:18:51;;;;;;;99.57;70.28;;;5.10;99.90;;;;;;5050883;28;20024;-73
2022/11/06 01:21:20;;;;;;;96.53;69.03;;;5.00;99.90;;;;;;5051133;28;20100;-73
2022/11/06 01:23:50;;;;;;;84.10;68.95;;;5.00;99.90;;;;;;5049855;28;20067;-74
2022/11/06 01:26:16;;;;;;;85.32;66.88;;;5.00;99.90;;;;;;5057064;28;20435;-74
2022/11/06 01:28:41;;;;;;;91.05;66.63;;;4.80;99.90;;;;;;5058396;28;20116;-74
2022/11/06 01:31:21;;;;;;;96.47;68.40;;;4.70;99.90;;;;;;5064712;28;20118;-74
2022/11/06 01:33:46;;;;;;;67.35;59.75;;;4.70;99.90;;;;;;5051453;28;20147;-74
2022/11/06 01:36:14;;;;;;;75.20;67.07;;;4.70;99.90;;;;;;5050944;28;20037;-74
2022/11/06 01:38:41;;;;;;;78.43;69.70;;;4.90;99.90;;;;;;5050687;28;20487;-74
2022/11/06 01:41:07;;;;;;;81.32;67.68;;;4.90;99.90;;;;;;5050867;28;20025;-74
2022/11/06 01:43:53;;;;;;;78.60;69.13;;;4.80;99.90;;;;;;5064230;28;20093;-74
2022/11/06 01:46:21;;;;;;;75.78;67.60;;;4.90;99.90;;;;;;5050955;28;20018;-74
2022/11/06 01:48:58;;;;;;;79.53;66.72;;;4.80;99.90;;;;;;5049349;28;20116;-74
2022/11/06 01:51:26;;;;;;;76.30;67.93;;;4.90;99.90;;;;;;5050951;28;20430;-74
2022/11/06 01:53:53;;;;;;;74.40;65.88;;;4.80;99.90;;;;;;5049544;28;20032;-74
2022/11/06 01:56:21;;;;;;;77.70;66.72;;;4.80;99.90;;;;;;5050846;28;20025;-74
2022/11/06 01:58:49;;;;;;;69.93;62.67;;;4.80;99.90;;;;;;5050493;28;20695;-74
2022/11/06 02:01:15;;;;;;;72.03;64.95;;;4.80;99.90;;;;;;5051987;28;20386;-73
2022/11/06 02:03:53;;;;;;;173.88;81.82;;;4.70;99.90;;;;;;5054410;28;20092;-73
2022/11/06 02:06:20;;;;;;;110.90;66.80;;;4.40;99.90;;;;;;5054349;28;20495;-72
2022/11/06 02:08:46;;;;;;;63.92;57.45;;;4.10;99.90;;;;;;5058650;28;20032;-73
2022/11/06 02:11:12;;;;;;;86.22;66.68;;;4.20;99.90;;;;;;5070667;28;20508;-73
2022/11/06 02:13:40;;;;;;;70.78;63.33;;;4.40;99.90;;;;;;5052940;28;20025;-73
2022/11/06 02:16:20;;;;;;;90.50;71.53;;;4.40;99.90;;;;;;5055920;28;20483;-73
2022/11/06 02:19:12;;;;;;;121.05;74.07;;;4.30;99.90;;;;;;5061187;28;20391;-75
2022/11/06 02:21:47;;;;;;;110.15;68.95;;;4.10;99.90;;;;;;5062407;28;20021;-73
2022/11/06 02:24:31;;;;;;;99.50;63.47;;;4.00;99.90;;;;;;5072693;28;20393;-73
2022/11/06 02:27:11;;;;;;;88.93;66.22;;;4.00;99.90;;;;;;5060442;28;20028;-73
2022/11/06 02:29:39;;;;;;;89.30;61.55;;;3.90;99.90;;;;;;5054089;28;20437;-73
2022/11/06 02:32:10;;;;;;;82.25;63.53;;;3.80;99.90;;;;;;5067116;28;20025;-73
2022/11/06 02:34:37;;;;;;;80.07;59.08;;;3.90;99.90;;;;;;5062458;28;20024;-73
2022/11/06 02:37:13;;;;;;;66.45;58.25;;;3.70;99.90;;;;;;5058012;28;20033;-73
2022/11/06 02:39:42;;;;;;;72.20;60.72;;;3.80;99.90;;;;;;5063831;28;20020;-74
2022/11/06 02:42:11;;;;;;;67.35;60.55;;;3.90;99.90;;;;;;5056593;28;20439;-74
2022/11/06 02:44:39;;;;;;;70.82;63.78;;;4.10;99.90;;;;;;5062986;28;20020;-75
2022/11/06 02:47:08;;;;;;;66.40;59.72;;;4.40;99.90;;;;;;5055784;28;20390;-74
2022/11/06 02:49:48;;;;;;;66.03;59.53;;;4.50;99.90;;;;;;5065030;28;20052;-74
2022/11/06 02:52:20;;;;;;;67.63;60.78;;;4.50;99.90;;;;;;5059868;28;20021;-75
2022/11/06 02:54:53;;;;;;;63.65;57.17;;;4.50;99.90;;;;;;5059490;28;20499;-72
2022/11/06 02:57:20;;;;;;;60.97;54.92;;;4.10;99.90;;;;;;5061582;28;20078;-72
2022/11/06 03:00:01;;;;;;;64.70;57.80;;;4.00;99.90;;;;;;5058059;28;20044;-73
2022/11/06 03:02:35;;;;;;;64.03;57.10;;;4.00;99.90;;;;;;5052035;28;20021;-73
2022/11/06 03:05:10;;;;;;;64.10;57.22;;;4.10;99.90;;;;;;5058648;28;20119;-73
2022/11/06 03:08:10;;;;;;;59.70;53.28;;;4.10;99.90;;;;;;5059506;28;20074;-73
2022/11/06 03:10:49;;;;;;;60.90;54.67;;;4.00;99.90;;;;;;5060255;28;20459;-74
2022/11/06 03:13:26;;;;;;;64.57;57.92;;;3.90;99.90;;;;;;5052986;28;20395;-74
2022/11/06 03:16:04;;;;;;;63.80;56.90;;;4.00;99.90;;;;;;5066439;28;20054;-74
2022/11/06 03:18:39;;;;;;;59.50;53.03;;;3.90;99.90;;;;;;5061271;28;20020;-74
2022/11/06 03:21:13;;;;;;;68.80;62.45;;;3.80;99.90;;;;;;5059421;28;20033;-75
2022/11/06 03:24:11;;;;;;;67.15;61.58;;;4.10;99.90;;;;;;5060732;28;20029;-74
2022/11/06 03:26:44;;;;;;;69.70;63.72;;;4.30;99.90;;;;;;5061347;28;20024;-74
2022/11/06 03:29:26;;;;;;;69.63;63.80;;;4.30;99.90;;;;;;5057764;28;20028;-74
2022/11/06 03:32:14;;;;;;;68.22;61.72;;;4.50;99.90;;;;;;5060782;28;20025;-74
2022/11/06 03:34:47;;;;;;;64.40;58.28;;;4.50;99.90;;;;;;5060710;28;20039;-74
2022/11/06 03:37:18;;;;;;;66.82;60.85;;;4.30;99.90;;;;;;5055238;28;20033;-74
2022/11/06 03:39:49;;;;;;;69.80;63.17;;;4.30;99.90;;;;;;5062101;28;20024;-74
2022/11/06 03:42:20;;;;;;;68.68;62.13;;;4.40;99.90;;;;;;5059286;28;20017;-74
2022/11/06 03:44:50;;;;;;;70.70;63.70;;;4.40;99.90;;;;;;5072513;28;20028;-74
2022/11/06 03:47:18;;;;;;;70.50;63.63;;;4.30;99.90;;;;;;5066217;28;20032;-74
2022/11/06 03:49:50;;;;;;;64.63;58.15;;;4.40;99.90;;;;;;5064388;28;20387;-75
2022/11/06 03:52:23;;;;;;;62.65;55.88;;;4.30;99.90;;;;;;5059017;28;20038;-75
2022/11/06 03:55:16;;;;;;;65.47;59.25;;;4.10;99.90;;;;;;5058824;28;20131;-74
2022/11/06 03:57:54;;;;;;;65.88;59.53;;;4.20;99.90;;;;;;5061498;28;20025;-74
2022/11/06 04:00:20;;;;;;;66.22;59.30;;;4.30;99.90;;;;;;5065916;28;20017;-74
2022/11/06 04:03:03;;;;;;;66.72;59.63;;;4.30;99.90;;;;;;5062870;28;20500;-73
2022/11/06 04:05:33;;;;;;;83.03;59.67;;;4.10;99.90;;;;;;5050991;28;20023;-73
2022/11/06 04:16:20;;;;;;;65.32;58.50;;;3.80;99.90;;;;;;5054726;28;20039;-74
2022/11/06 04:18:45;;;;;;;64.40;57.83;;;3.90;99.90;;;;;;5061433;28;20044;-74
2022/11/06 04:21:52;;;;;;;71.40;63.50;;;4.10;99.90;;;;;;5057387;28;20466;-73
2022/11/06 04:27:31;;;;;;;70.85;63.55;;;4.20;99.90;;;;;;5023102;28;20036;-74
2022/11/06 04:30:02;;;;;;;72.07;64.22;;;4.10;99.90;;;;;;5052709;28;20044;-74
2022/11/06 04:32:37;;;;;;;66.93;60.05;;;4.10;99.90;;;;;;5057150;28;20073;-74
2022/11/06 04:35:31;;;;;;;70.35;62.35;;;4.10;99.90;;;;;;5060048;28;20029;-74
2022/11/06 04:38:08;;;;;;;66.13;59.00;;;4.10;99.90;;;;;;5058699;28;20032;-74
2022/11/06 04:40:58;;;;;;;63.33;56.95;;;3.90;99.90;;;;;;5056796;28;20016;-74
2022/11/06 04:43:39;;;;;;;68.72;61.40;;;3.80;99.90;;;;;;5058606;28;20111;-74
2022/11/06 04:46:08;;;;;;;65.50;58.75;;;3.80;99.90;;;;;;5060281;28;20440;-75
2022/11/06 04:48:37;;;;;;;66.60;59.65;;;3.90;99.90;;;;;;5056430;28;20475;-74
2022/11/06 04:51:07;;;;;;;69.10;62.00;;;3.90;99.90;;;;;;5062398;28;20049;-74
2022/11/06 04:53:34;;;;;;;72.50;65.15;;;4.00;99.90;;;;;;5065425;28;20096;-73
2022/11/06 04:56:08;;;;;;;65.95;59.20;;;4.10;99.90;;;;;;5061396;28;20506;-74
2022/11/06 04:58:33;;;;;;;72.15;64.53;;;4.10;99.90;;;;;;5057835;28;20028;-74
2022/11/06 05:00:59;;;;;;;67.25;59.42;;;4.00;99.90;;;;;;5060622;28;20148;-73
2022/11/06 05:03:24;;;;;;;76.72;64.25;;;3.90;99.90;;;;;;5064997;28;20032;-73
2022/11/06 05:05:50;;;;;;;69.68;62.35;;;3.90;99.90;;;;;;5061910;28;20024;-73
2022/11/06 05:08:18;;;;;;;75.13;62.53;;;3.90;99.90;;;;;;5057045;28;20032;-73
2022/11/06 05:10:44;;;;;;;66.10;58.90;;;3.80;99.90;;;;;;5050112;28;20036;-73
2022/11/06 05:13:10;;;;;;;71.47;63.80;;;3.80;99.90;;;;;;5064909;28;20036;-74
2022/11/06 05:15:36;;;;;;;72.00;64.65;;;3.90;99.90;;;;;;5063147;28;20103;-74
2022/11/06 05:18:02;;;;;;;83.88;63.50;;;3.90;99.90;;;;;;5057615;28;20103;-75
2022/11/06 05:20:27;;;;;;;61.55;54.90;;;3.70;99.90;;;;;;5059748;28;20053;-73
2022/11/06 05:23:02;;;;;;;67.57;61.20;;;3.70;99.90;;;;;;5063461;28;20044;-74
2022/11/06 05:25:31;;;;;;;71.72;64.43;;;3.80;99.90;;;;;;5062487;28;20020;-74
2022/11/06 05:27:58;;;;;;;67.82;61.00;;;3.90;99.90;;;;;;5063589;28;20045;-73
2022/11/06 05:30:24;;;;;;;74.95;67.63;;;3.90;99.90;;;;;;5064229;28;20035;-73
2022/11/06 05:32:51;;;;;;;76.20;68.28;;;4.00;99.90;;;;;;5051671;28;20510;-74
2022/11/06 05:35:18;;;;;;;77.10;68.90;;;4.00;99.90;;;;;;5064154;28;20033;-76
2022/11/06 05:37:44;;;;;;;73.60;65.75;;;4.00;99.90;;;;;;5057889;28;20025;-74
2022/11/06 05:40:10;;;;;;;74.38;66.65;;;4.00;99.90;;;;;;5067970;28;20024;-73
2022/11/06 05:42:40;;;;;;;74.45;66.40;;;4.00;99.90;;;;;;5061258;28;20025;-74
2022/11/06 05:45:07;;;;;;;74.15;66.22;;;4.10;99.90;;;;;;5061686;28;20032;-75
2022/11/06 05:47:33;;;;;;;72.03;63.83;;;3.90;99.90;;;;;;5059597;28;20028;-75
2022/11/06 05:49:59;;;;;;;106.95;96.68;;;3.90;99.90;;;;;;5061439;28;20495;-75
2022/11/06 05:52:25;;;;;;;86.97;70.85;;;3.90;99.90;;;;;;5066656;28;20067;-75
2022/11/06 05:54:50;;;;;;;6.10;3.42;;;3.80;99.90;;;;;;5066485;28;20661;-75
2022/11/06 05:57:16;;;;;;;1.10;1.10;;;3.60;99.90;;;;;;5059688;28;20040;-75
2022/11/06 05:59:41;;;;;;;2.88;2.78;;;3.50;99.90;;;;;;5061632;28;20429;-74
2022/11/06 06:02:07;;;;;;;1.15;1.15;;;3.50;99.90;;;;;;5068143;28;20021;-74
2022/11/06 06:04:33;;;;;;;0.52;0.52;;;3.30;99.90;;;;;;5067394;28;20029;-74
2022/11/06 06:06:58;;;;;;;0.88;0.88;;;3.10;99.90;;;;;;5060829;28;20031;-75
2022/11/06 06:09:24;;;;;;;1.45;1.40;;;3.20;99.90;;;;;;5061494;28;20356;-74
2022/11/06 06:11:51;;;;;;;0.70;0.70;;;3.10;99.90;;;;;;5061774;28;20119;-74
2022/11/06 06:14:17;;;;;;;1.02;1.02;;;3.20;99.90;;;;;;5059671;28;20032;-73
2022/11/06 06:16:42;;;;;;;0.70;0.70;;;3.10;99.90;;;;;;5066401;28;20387;-73
2022/11/06 06:19:08;;;;;;;0.70;0.70;;;3.10;99.90;;;;;;5066213;28;20021;-72
2022/11/06 06:21:35;;;;;;;0.80;0.80;;;3.10;99.90;;;;;;5061593;28;20039;-72
2022/11/06 06:24:01;;;;;;;2.97;2.67;;;3.10;99.90;;;;;;5060563;28;20023;-73
2022/11/06 06:26:27;;;;;;;0.73;0.73;;;3.10;99.90;;;;;;5064935;28;20103;-72
2022/11/06 06:28:52;;;;;;;0.80;0.80;;;3.20;99.90;;;;;;5053387;28;20032;-72
2022/11/06 06:31:18;;;;;;;0.80;0.80;;;3.30;99.90;;;;;;5066638;28;20029;-72
2022/11/06 06:33:43;;;;;;;2.38;2.22;;;3.30;99.90;;;;;;5067387;28;20033;-74
2022/11/06 06:36:09;;;;;;;0.90;0.90;;;3.20;99.90;;;;;;5053801;28;20092;-73
2022/11/06 06:38:35;;;;;;;1.00;1.00;;;3.00;99.90;;;;;;5066890;28;20036;-72
2022/11/06 06:41:04;;;;;;;1.00;1.00;;;3.00;99.90;;;;;;5061247;28;20035;-72
2022/11/06 06:43:30;;;;;;;1.00;1.00;;;3.00;99.90;;;;;;5060369;28;20029;-73
2022/11/06 06:45:58;;;;;;;1.20;1.20;;;2.90;99.90;;;;;;5065630;28;20444;-74
2022/11/06 06:48:24;;;;;;;1.35;1.35;;;2.70;99.90;;;;;;5066531;28;20576;-73
2022/11/06 06:50:49;;;;;;;1.30;1.30;;;2.70;99.90;;;;;;5061872;28;20029;-73
2022/11/06 06:53:15;;;;;;;1.50;1.50;;;2.70;99.90;;;;;;5060360;28;20035;-74
2022/11/06 06:55:40;;;;;;;2.53;2.42;;;2.80;99.90;;;;;;5065502;28;20028;-74
2022/11/06 06:58:06;;;;;;;1.30;1.30;;;2.90;99.90;;;;;;5066687;28;20021;-75
2022/11/06 07:00:32;;;;;;;1.40;1.40;;;2.70;99.90;;;;;;5060701;28;20422;-73
2022/11/06 07:02:57;;;;;;;2.28;2.17;;;3.00;99.90;;;;;;5061145;28;20395;-74
2022/11/06 07:05:23;;;;;;;2.30;2.20;;;3.10;99.90;;;;;;5068587;28;20028;-74
2022/11/06 07:07:49;;;;;;;1.45;1.45;;;3.00;99.90;;;;;;5071718;28;20028;-74
2022/11/06 07:10:15;;;;;;;1.70;1.70;;;3.00;99.90;;;;;;5077297;28;20474;-74
2022/11/06 07:12:40;;;;;;;1.30;1.30;;;3.20;99.90;;;;;;5076089;28;20041;-75
2022/11/06 07:15:07;;;;;;;5.00;4.80;;;3.40;99.90;;;;;;5064804;28;20021;-73
2022/11/06 07:17:32;;;;;;;1.63;1.63;;;3.50;99.90;;;;;;5062740;28;20032;-74
2022/11/06 07:19:58;;;;;;;1.80;1.80;;;3.70;99.90;;;;;;5056996;28;20099;-74
2022/11/06 07:22:27;;;;;;;2.40;2.30;;;3.80;99.90;;;;;;5058194;28;20059;-73
2022/11/06 07:24:53;;;;;;;2.58;2.47;;;3.90;99.90;;;;;;5056822;28;20064;-72
2022/11/06 07:27:18;;;;;;;4.07;3.88;;;4.00;99.90;;;;;;5055329;28;20029;-73
2022/11/06 07:29:44;;;;;;;3.95;3.75;;;4.00;99.90;;;;;;5061126;28;20027;-73
2022/11/06 07:32:10;;;;;;;4.20;4.00;;;4.00;99.90;;;;;;5058097;28;20025;-73
2022/11/06 07:34:37;;;;;;;3.10;3.00;;;4.00;99.90;;;;;;5072782;28;20486;-72
2022/11/06 07:37:04;;;;;;;2.88;2.78;;;4.00;99.90;;;;;;5071239;28;20520;-73
2022/11/06 07:39:30;;;;;;;2.97;2.88;;;4.10;99.90;;;;;;5071394;28;20020;-73
2022/11/06 07:41:55;;;;;;;3.45;3.35;;;4.20;99.90;;;;;;5071110;28;20050;-73
2022/11/06 07:44:21;;;;;;;3.10;3.00;;;4.30;99.90;;;;;;5060718;28;20508;-73
2022/11/06 07:46:46;;;;;;;3.83;3.72;;;4.30;99.90;;;;;;5058731;28;20040;-73
2022/11/06 07:49:12;;;;;;;3.80;3.70;;;4.40;99.90;;;;;;5063090;28;20029;-73
2022/11/06 07:51:38;;;;;;;3.72;3.63;;;4.40;99.90;;;;;;5065960;28;20025;-73
2022/11/06 07:54:03;;;;;;;3.33;3.22;;;4.40;99.90;;;;;;5059894;28;20098;-73
2022/11/06 07:56:29;;;;;;;4.05;3.95;;;4.20;99.90;;;;;;5061000;28;20031;-73
2022/11/06 07:58:54;;;;;;;3.85;3.75;;;4.20;99.90;;;;;;5058588;28;20028;-73
2022/11/06 08:01:20;;;;;;;3.78;3.67;;;4.20;99.90;;;;;;5074142;28;20028;-73
2022/11/06 08:03:45;;;;;;;4.45;4.30;;;4.30;99.90;;;;;;5083705;28;20031;-73
2022/11/06 08:06:11;;;;;;;4.75;4.63;;;4.20;99.90;;;;;;5077457;28;20066;-73
2022/11/06 08:08:37;;;;;;;4.10;4.00;;;4.30;99.90;;;;;;5050475;28;20479;-73
2022/11/06 08:11:08;;;;;;;5.18;4.97;;;4.20;99.90;;;;;;5065078;28;20029;-73
2022/11/06 08:13:34;;;;;;;5.78;5.57;;;4.40;99.90;;;;;;5062623;28;20032;-73
2022/11/06 08:16:09;;;;;;;4.85;4.65;;;4.50;99.90;;;;;;5065611;28;20024;-73
2022/11/06 08:18:34;;;;;;;5.85;5.65;;;4.40;99.90;;;;;;5059509;28;20063;-73
2022/11/06 08:21:01;;;;;;;5.15;4.95;;;4.50;99.90;;;;;;5055715;28;20057;-73
2022/11/06 08:23:26;;;;;;;5.20;5.00;;;4.60;99.90;;;;;;5056253;28;20085;-73
2022/11/06 08:25:55;;;;;;;5.90;5.70;;;4.70;99.90;;;;;;5074810;28;20052;-73
2022/11/06 08:28:21;;;;;;;6.47;6.28;;;4.90;99.90;;;;;;5051642;28;20059;-73
2022/11/06 08:30:47;;;;;;;5.80;5.50;;;4.90;99.90;;;;;;5065345;28;20060;-74
2022/11/06 08:33:12;;;;;;;6.18;5.97;;;5.10;99.90;;;;;;5061353;28;20024;-73
2022/11/06 08:35:38;;;;;;;6.35;6.15;;;5.10;99.90;;;;;;5058385;28;20028;-74
2022/11/06 08:38:03;;;;;;;5.90;5.70;;;5.00;99.90;;;;;;5061746;28;20034;-74
2022/11/06 08:40:29;;;;;;;6.95;6.75;;;5.10;99.90;;;;;;5063997;28;20029;-74
2022/11/06 08:43:03;;;;;;;6.80;6.60;;;5.40;99.90;;;;;;5061237;28;20025;-74
2022/11/06 08:45:29;;;;;;;6.68;6.47;;;5.40;99.90;;;;;;5066581;28;20036;-74
2022/11/06 08:48:00;;;;;;;6.30;6.10;;;5.20;99.90;;;;;;5062071;28;20027;-74
2022/11/06 08:50:26;;;;;;;8.60;8.30;;;5.10;99.90;;;;;;5058048;28;20045;-74
2022/11/06 08:52:51;;;;;;;7.95;7.57;;;5.20;99.90;;;;;;5060655;28;20072;-74
2022/11/06 08:55:17;;;;;;;7.63;7.32;;;5.20;99.90;;;;;;5065213;28;20114;-74
2022/11/06 08:57:42;;;;;;;7.47;7.20;;;5.30;99.90;;;;;;5060560;28;20608;-74
2022/11/06 09:00:08;;;;;;;7.22;7.03;;;5.50;99.90;;;;;;5056830;28;20021;-74
2022/11/06 09:02:34;;;;;;;6.60;6.40;;;5.60;99.90;;;;;;5060848;28;20021;-74
2022/11/06 09:05:00;;;;;;;7.70;7.40;;;5.70;99.90;;;;;;5064785;28;20031;-73
2022/11/06 09:07:25;;;;;;;8.23;7.72;;;5.70;99.90;;;;;;5061830;28;20532;-74
2022/11/06 09:09:51;;;;;;;7.82;7.53;;;5.80;99.90;;;;;;5054664;28;20035;-75
2022/11/06 09:12:16;;;;;;;8.80;8.45;;;5.90;99.90;;;;;;5066474;28;20060;-75
2022/11/06 09:14:42;;;;;;;6.95;6.75;;;6.00;99.90;;;;;;5061879;28;20119;-75
2022/11/06 09:17:07;;;;;;;8.20;7.90;;;6.10;99.90;;;;;;5063001;28;20027;-74
2022/11/06 09:19:33;;;;;;;9.32;8.82;;;6.50;99.90;;;;;;5067525;28;20048;-75
2022/11/06 09:21:58;;;;;;;7.13;6.93;;;6.60;99.90;;;;;;5064957;28;20024;-75
2022/11/06 09:24:24;;;;;;;6.00;5.80;;;6.70;99.90;;;;;;5069538;28;20021;-74
2022/11/06 09:26:50;;;;;;;6.97;6.78;;;6.90;99.90;;;;;;5066044;28;20104;-75
2022/11/06 09:29:15;;;;;;;10.07;9.48;;;7.00;99.90;;;;;;5061539;28;20033;-74
2022/11/06 09:31:42;;;;;;;7.28;6.80;;;7.00;99.90;;;;;;5064265;28;20021;-74
2022/11/06 09:34:10;;;;;;;8.43;8.13;;;7.10;99.90;;;;;;5068393;28;20051;-74
2022/11/06 09:36:36;;;;;;;7.63;7.35;;;7.20;99.90;;;;;;5066511;28;20036;-75
2022/11/06 09:39:02;;;;;;;7.30;7.00;;;7.10;99.90;;;;;;5061188;28;20125;-74
2022/11/06 09:41:57;;;;;;;10.13;9.63;;;7.20;99.90;;;;;;5063348;28;20025;-74
2022/11/06 09:44:31;;;;;;;8.15;7.78;;;7.30;99.90;;;;;;5063642;28;20028;-74
2022/11/06 09:46:58;;;;;;;7.80;7.50;;;7.20;99.90;;;;;;5057873;28;20620;-75
2022/11/06 09:49:39;;;;;;;9.10;8.80;;;7.40;99.90;;;;;;5065085;28;20496;-75
2022/11/06 09:52:33;;;;;;;8.10;7.80;;;7.40;99.90;;;;;;5061170;28;20051;-75
2022/11/06 09:55:20;;;;;;;7.97;7.68;;;7.50;99.90;;;;;;5057412;28;20578;-75
2022/11/06 09:57:58;;;;;;;8.77;8.27;;;7.60;99.90;;;;;;5061473;28;20037;-76
2022/11/06 10:00:24;;;;;;;8.00;7.70;;;7.60;99.90;;;;;;5057312;28;20017;-75
2022/11/06 10:03:10;;;;;;;8.65;8.25;;;7.60;99.90;;;;;;5067765;28;20103;-75
2022/11/06 10:05:37;;;;;;;;;;;7.70;99.90;;;;;;5065026;28;20475;-76
2022/11/06 10:08:08;;;;;;;15.02;14.20;;;7.90;99.90;;;;;;5056131;28;20007;-75
2022/11/06 10:10:56;;;;;;;9.07;8.77;;;7.90;99.90;;;;;;5063134;28;20554;-75
2022/11/06 10:13:29;;;;;;;8.60;8.30;;;7.70;99.90;;;;;;5067859;28;20029;-76
2022/11/06 10:16:07;;;;;;;10.23;9.50;;;7.90;99.90;;;;;;5067492;28;20553;-75
2022/11/06 10:18:51;;;;;;;10.70;10.23;;;8.00;99.90;;;;;;5063178;28;20032;-74
2022/11/06 10:21:26;;;;;;;9.10;8.80;;;8.20;99.90;;;;;;5055105;28;20371;-75
2022/11/06 10:23:57;;;;;;;7.53;7.25;;;8.40;99.90;;;;;;5066985;28;20093;-75
2022/11/06 10:26:33;;;;;;;8.98;8.68;;;8.30;99.90;;;;;;5058332;28;20111;-75
2022/11/06 10:28:58;;;;;;;;;;;8.20;99.90;;;;;;5060130;28;20524;-75
2022/11/06 10:31:36;;;;;;;8.60;8.30;;;8.20;99.90;;;;;;5064953;28;19909;-75
2022/11/06 10:34:08;;;;;;;9.80;9.40;;;8.50;99.90;;;;;;5062329;28;20032;-75
2022/11/06 10:36:55;;;;;;;9.68;9.38;;;8.40;99.90;;;;;;5053734;28;20079;-75
2022/11/06 10:39:32;;;;;;;7.90;7.60;;;8.50;99.90;;;;;;5065743;28;20052;-75
2022/11/06 10:42:05;;;;;;;8.23;7.93;;;8.50;99.90;;;;;;5053564;28;20025;-75
2022/11/06 10:44:43;;;;;;;8.77;8.48;;;8.40;99.90;;;;;;5064333;28;20498;-75
2022/11/06 10:47:20;;;;;;;8.90;8.60;;;8.50;99.90;;;;;;5066914;28;20037;-75
2022/11/06 10:49:55;;;;;;;8.30;8.00;;;8.50;99.90;;;;;;5064327;28;20719;-76
2022/11/06 10:52:47;;;;;;;7.63;7.32;;;8.70;99.90;;;;;;5060233;28;20399;-75
2022/11/06 10:55:44;;;;;;;10.85;10.00;;;8.70;99.90;;;;;;5070332;28;20410;-75
2022/11/06 10:58:16;;;;;;;7.95;7.65;;;8.70;99.90;;;;;;5066671;28;20031;-75
2022/11/06 11:00:43;;;;;;;8.35;7.95;;;8.80;99.90;;;;;;5053391;28;20519;-75
2022/11/06 11:03:31;;;;;;;7.60;7.30;;;8.80;99.90;;;;;;5065668;28;20024;-76
2022/11/06 11:05:57;;;;;;;7.50;7.20;;;8.80;99.90;;;;;;5062023;28;20032;-75
2022/11/06 11:08:41;;;;;;;10.35;9.75;;;9.10;99.90;;;;;;5057732;28;20060;-75
2022/11/06 11:11:15;;;;;;;6.72;6.53;;;9.00;99.90;;;;;;5054673;28;20028;-76
2022/11/06 11:14:03;;;;;;;6.30;6.10;;;9.10;99.90;;;;;;5063894;28;20042;-75
2022/11/06 11:16:33;;;;;;;5.97;5.78;;;9.20;99.90;;;;;;5065968;28;20044;-75
2022/11/06 11:19:33;;;;;;;5.03;4.80;;;9.00;99.90;;;;;;5064105;28;20025;-75
2022/11/06 11:22:02;;;;;;;6.07;5.68;;;9.10;99.90;;;;;;5063348;28;20024;-75
2022/11/06 11:24:28;;;;;;;5.15;4.63;;;9.10;99.90;;;;;;5059488;28;20376;-75
2022/11/06 11:27:01;;;;;;;5.95;5.65;;;9.10;99.90;;;;;;5061973;28;20162;-76
2022/11/06 11:29:31;;;;;;;8.10;7.38;;;9.20;99.90;;;;;;5065146;28;20082;-77
2022/11/06 11:32:02;;;;;;;4.90;4.60;;;9.20;99.90;;;;;;5065617;28;20135;-76
2022/11/06 11:34:31;;;;;;;4.50;4.38;;;9.20;99.90;;;;;;5058101;28;20028;-75
2022/11/06 11:37:05;;;;;;;5.10;4.90;;;9.10;99.90;;;;;;5065064;28;20090;-74
2022/11/06 11:39:42;;;;;;;4.15;3.88;;;9.10;99.90;;;;;;5060294;28;20017;-76
2022/11/06 11:42:39;;;;;;;2.88;2.78;;;9.10;99.90;;;;;;5059096;28;20021;-76
2022/11/06 11:45:07;;;;;;;6.38;5.97;;;9.20;99.90;;;;;;5058443;28;20032;-76
2022/11/06 11:47:33;;;;;;;4.43;4.32;;;9.20;99.90;;;;;;5065695;28;20040;-76
2022/11/06 11:50:27;;;;;;;4.53;4.35;;;9.20;99.90;;;;;;5065600;28;20144;-76
2022/11/06 11:53:18;;;;;;;3.90;3.80;;;9.30;99.90;;;;;;5061509;28;20115;-76
2022/11/06 11:55:47;;;;;;;4.35;4.15;;;9.40;99.90;;;;;;5068210;28;20031;-76
2022/11/06 11:58:18;;;;;;;4.28;4.07;;;9.30;99.90;;;;;;5077857;28;20478;-76
2022/11/06 12:00:59;;;;;;;3.90;3.70;;;9.40;99.90;;;;;;5083664;28;20020;-76
2022/11/06 12:03:31;;;;;;;2.97;2.88;;;9.30;99.90;;;;;;5053855;28;20493;-76
2022/11/06 12:06:09;;;;;;;2.78;2.67;;;9.20;99.90;;;;;;5062090;28;20111;-76
2022/11/06 12:08:38;;;;;;;2.70;2.60;;;9.30;99.90;;;;;;5055441;28;20086;-76
2022/11/06 12:11:06;;;;;;;4.65;4.32;;;9.40;99.90;;;;;;5071849;28;20029;-75
2022/11/06 12:13:31;;;;;;;3.70;3.55;;;9.40;99.90;;;;;;5071861;28;20436;-75
2022/11/06 12:16:09;;;;;;;3.30;3.20;;;9.30;99.90;;;;;;5072006;28;20025;-76
2022/11/06 12:18:39;;;;;;;2.70;2.60;;;9.40;99.90;;;;;;5062916;28;20021;-76
2022/11/06 12:21:17;;;;;;;5.80;5.28;;;9.30;99.90;;;;;;5052169;28;20025;-76
2022/11/06 12:23:51;;;;;;;3.72;3.53;;;9.40;99.90;;;;;;5051854;28;20053;-76
2022/11/06 12:26:37;;;;;;;3.35;3.17;;;9.30;99.90;;;;;;5051717;28;20075;-76
2022/11/06 12:29:23;;;;;;;6.78;5.22;;;9.40;99.90;;;;;;5051370;28;20112;-76
2022/11/06 12:32:06;;;;;;;2.55;2.45;;;9.40;99.90;;;;;;5050470;28;20033;-76
2022/11/06 12:35:06;;;;;;;2.30;2.20;;;9.30;99.90;;;;;;5058282;28;20051;-76
2022/11/06 12:37:46;;;;;;;2.95;2.75;;;9.50;99.90;;;;;;5071181;28;20521;-75
2022/11/06 12:40:19;;;;;;;2.28;2.17;;;9.80;99.90;;;;;;5071654;28;20029;-76
2022/11/06 12:43:24;;;;;;;3.13;1.98;;;9.70;99.90;;;;;;5071616;28;20509;-76
2022/11/06 12:46:22;;;;;;;1.60;1.60;;;9.30;99.90;;;;;;5043621;28;20033;-76
2022/11/06 12:49:03;;;;;;;2.33;2.15;;;9.60;99.90;;;;;;5047215;28;20072;-76
2022/11/06 12:52:02;;;;;;;3.42;2.40;;;9.60;99.90;;;;;;5050229;28;20383;-76
2022/11/06 12:54:55;;;;;;;2.15;1.73;;;9.50;99.90;;;;;;5061909;28;20024;-76
2022/11/06 12:57:49;;;;;;;5.93;3.15;;;9.50;99.90;;;;;;5071133;28;20433;-76
2022/11/06 13:00:20;;;;;;;1.50;1.50;;;9.40;99.90;;;;;;5054264;28;20115;-76
2022/11/06 13:03:14;;;;;;;1.58;1.58;;;9.50;99.90;;;;;;5071353;28;20016;-76
2022/11/06 13:05:51;;;;;;;1.20;1.20;;;9.60;99.90;;;;;;5070170;28;20016;-76
2022/11/06 13:09:06;;;;;;;1.40;1.40;;;9.60;99.90;;;;;;5070999;28;20028;-76
2022/11/06 13:11:55;;;;;;;2.00;1.90;;;9.70;99.90;;;;;;5027135;28;20029;-76
2022/11/06 13:14:31;;;;;;;2.53;2.33;;;9.50;99.90;;;;;;5043772;28;20057;-76
2022/11/06 13:17:35;;;;;;;2.38;2.28;;;9.30;99.90;;;;;;5059431;28;20115;-76
2022/11/06 13:20:16;;;;;;;1.85;1.77;;;9.30;99.90;;;;;;5028915;28;20192;-76
2022/11/06 13:22:55;;;;;;;7.50;2.03;;;9.40;99.90;;;;;;5028915;28;20559;-75
2022/11/06 13:25:37;;;;;;;2.72;1.27;;;9.50;99.90;;;;;;5055625;28;20029;-75